sensor_id;sensor_type;location;lat;lon;timestamp;pressure;altitude;pressure_sealevel;temperature
76713;BMP280;65640;43.154;25.658;2024-02-28T00:00:39;101080.28;;;5.83
76713;BMP280;65640;43.154;25.658;2024-02-28T00:03:04;101084.41;;;5.72
76713;BMP280;65640;43.154;25.658;2024-02-28T00:05:31;101092.63;;;5.69
76713;BMP280;65640;43.154;25.658;2024-02-28T00:07:56;101090.00;;;5.87
76713;BMP280;65640;43.154;25.658;2024-02-28T00:10:22;101092.31;;;5.77
76713;BMP280;65640;43.154;25.658;2024-02-28T00:12:47;101086.72;;;5.62
76713;BMP280;65640;43.154;25.658;2024-02-28T00:15:12;101090.09;;;5.62
76713;BMP280;65640;43.154;25.658;2024-02-28T00:17:39;101087.56;;;5.74
76713;BMP280;65640;43.154;25.658;2024-02-28T00:20:06;101090.16;;;5.74
76713;BMP280;65640;43.154;25.658;2024-02-28T00:22:32;101093.03;;;5.66
76713;BMP280;65640;43.154;25.658;2024-02-28T00:24:57;101100.34;;;5.57
76713;BMP280;65640;43.154;25.658;2024-02-28T00:27:23;101095.22;;;5.51
76713;BMP280;65640;43.154;25.658;2024-02-28T00:29:48;101093.84;;;5.48
76713;BMP280;65640;43.154;25.658;2024-02-28T00:32:14;101091.22;;;5.48
76713;BMP280;65640;43.154;25.658;2024-02-28T00:34:39;101085.66;;;5.45
76713;BMP280;65640;43.154;25.658;2024-02-28T00:37:04;101082.22;;;5.51
76713;BMP280;65640;43.154;25.658;2024-02-28T00:39:29;101085.41;;;5.53
76713;BMP280;65640;43.154;25.658;2024-02-28T00:41:55;101083.66;;;5.47
76713;BMP280;65640;43.154;25.658;2024-02-28T00:44:20;101085.19;;;5.54
76713;BMP280;65640;43.154;25.658;2024-02-28T00:46:46;101088.22;;;5.51
76713;BMP280;65640;43.154;25.658;2024-02-28T00:49:11;101088.00;;;5.34
76713;BMP280;65640;43.154;25.658;2024-02-28T00:51:36;101084.09;;;5.25
76713;BMP280;65640;43.154;25.658;2024-02-28T00:54:02;101084.19;;;5.37
76713;BMP280;65640;43.154;25.658;2024-02-28T00:56:27;101086.19;;;5.35
76713;BMP280;65640;43.154;25.658;2024-02-28T00:58:53;101079.69;;;5.44
76713;BMP280;65640;43.154;25.658;2024-02-28T01:01:18;101088.75;;;5.42
76713;BMP280;65640;43.154;25.658;2024-02-28T01:03:44;101091.81;;;5.32
76713;BMP280;65640;43.154;25.658;2024-02-28T01:06:09;101098.69;;;5.20
76713;BMP280;65640;43.154;25.658;2024-02-28T01:08:34;101096.75;;;5.15
76713;BMP280;65640;43.154;25.658;2024-02-28T01:11:00;101094.63;;;5.06
76713;BMP280;65640;43.154;25.658;2024-02-28T01:13:25;101086.88;;;4.99
76713;BMP280;65640;43.154;25.658;2024-02-28T01:15:51;101089.69;;;4.97
76713;BMP280;65640;43.154;25.658;2024-02-28T01:18:16;101092.88;;;4.99
76713;BMP280;65640;43.154;25.658;2024-02-28T01:20:41;101096.69;;;5.22
76713;BMP280;65640;43.154;25.658;2024-02-28T01:23:07;101095.09;;;5.21
76713;BMP280;65640;43.154;25.658;2024-02-28T01:25:32;101087.47;;;5.26
76713;BMP280;65640;43.154;25.658;2024-02-28T01:27:58;101089.91;;;5.21
76713;BMP280;65640;43.154;25.658;2024-02-28T01:30:23;101097.84;;;5.01
76713;BMP280;65640;43.154;25.658;2024-02-28T01:32:49;101103.53;;;4.91
76713;BMP280;65640;43.154;25.658;2024-02-28T01:35:14;101102.56;;;4.86
76713;BMP280;65640;43.154;25.658;2024-02-28T01:37:39;101093.41;;;4.83
76713;BMP280;65640;43.154;25.658;2024-02-28T01:40:05;101100.94;;;4.91
76713;BMP280;65640;43.154;25.658;2024-02-28T01:42:31;101102.03;;;5.02
76713;BMP280;65640;43.154;25.658;2024-02-28T01:44:56;101104.56;;;4.84
76713;BMP280;65640;43.154;25.658;2024-02-28T01:47:22;101114.56;;;4.80
76713;BMP280;65640;43.154;25.658;2024-02-28T01:49:48;101110.16;;;4.81
76713;BMP280;65640;43.154;25.658;2024-02-28T01:52:14;101109.94;;;4.89
76713;BMP280;65640;43.154;25.658;2024-02-28T01:54:41;101107.50;;;4.94
76713;BMP280;65640;43.154;25.658;2024-02-28T01:57:06;101109.56;;;4.85
76713;BMP280;65640;43.154;25.658;2024-02-28T01:59:33;101105.41;;;4.78
76713;BMP280;65640;43.154;25.658;2024-02-28T02:01:59;101106.41;;;4.77
76713;BMP280;65640;43.154;25.658;2024-02-28T02:04:24;101105.59;;;4.76
76713;BMP280;65640;43.154;25.658;2024-02-28T02:06:50;101102.97;;;4.83
76713;BMP280;65640;43.154;25.658;2024-02-28T02:09:18;101107.97;;;4.78
76713;BMP280;65640;43.154;25.658;2024-02-28T02:11:43;101108.69;;;4.67
76713;BMP280;65640;43.154;25.658;2024-02-28T02:14:09;101106.38;;;4.52
76713;BMP280;65640;43.154;25.658;2024-02-28T02:16:34;101116.88;;;4.63
76713;BMP280;65640;43.154;25.658;2024-02-28T02:18:59;101109.19;;;4.75
76713;BMP280;65640;43.154;25.658;2024-02-28T02:21:30;101109.50;;;4.60
76713;BMP280;65640;43.154;25.658;2024-02-28T02:23:55;101105.16;;;4.54
76713;BMP280;65640;43.154;25.658;2024-02-28T02:26:21;101110.19;;;4.49
76713;BMP280;65640;43.154;25.658;2024-02-28T02:28:46;101117.16;;;4.49
76713;BMP280;65640;43.154;25.658;2024-02-28T02:31:13;101121.56;;;4.48
76713;BMP280;65640;43.154;25.658;2024-02-28T02:33:38;101116.38;;;4.48
76713;BMP280;65640;43.154;25.658;2024-02-28T02:36:04;101122.56;;;4.47
76713;BMP280;65640;43.154;25.658;2024-02-28T02:38:29;101126.75;;;4.42
76713;BMP280;65640;43.154;25.658;2024-02-28T02:40:55;101122.88;;;4.57
76713;BMP280;65640;43.154;25.658;2024-02-28T02:43:20;101131.13;;;4.41
76713;BMP280;65640;43.154;25.658;2024-02-28T02:45:45;101133.09;;;4.52
76713;BMP280;65640;43.154;25.658;2024-02-28T02:48:11;101135.81;;;4.64
76713;BMP280;65640;43.154;25.658;2024-02-28T02:50:36;101141.09;;;4.44
76713;BMP280;65640;43.154;25.658;2024-02-28T02:53:02;101140.50;;;4.42
76713;BMP280;65640;43.154;25.658;2024-02-28T02:55:28;101150.69;;;4.37
76713;BMP280;65640;43.154;25.658;2024-02-28T02:57:54;101146.53;;;4.36
76713;BMP280;65640;43.154;25.658;2024-02-28T03:00:20;101151.47;;;4.38
76713;BMP280;65640;43.154;25.658;2024-02-28T03:02:46;101145.50;;;4.37
76713;BMP280;65640;43.154;25.658;2024-02-28T03:05:11;101154.66;;;4.40
76713;BMP280;65640;43.154;25.658;2024-02-28T03:07:36;101160.50;;;4.35
76713;BMP280;65640;43.154;25.658;2024-02-28T03:10:02;101160.69;;;4.34
76713;BMP280;65640;43.154;25.658;2024-02-28T03:12:28;101161.88;;;4.31
76713;BMP280;65640;43.154;25.658;2024-02-28T03:14:54;101175.84;;;4.30
76713;BMP280;65640;43.154;25.658;2024-02-28T03:17:19;101166.47;;;4.29
76713;BMP280;65640;43.154;25.658;2024-02-28T03:19:44;101170.84;;;4.35
76713;BMP280;65640;43.154;25.658;2024-02-28T03:22:10;101169.47;;;4.33
76713;BMP280;65640;43.154;25.658;2024-02-28T03:24:35;101180.22;;;4.30
76713;BMP280;65640;43.154;25.658;2024-02-28T03:27:03;101187.03;;;4.24
76713;BMP280;65640;43.154;25.658;2024-02-28T03:29:29;101188.00;;;4.30
76713;BMP280;65640;43.154;25.658;2024-02-28T03:31:55;101187.81;;;4.31
76713;BMP280;65640;43.154;25.658;2024-02-28T03:34:20;101186.63;;;4.27
76713;BMP280;65640;43.154;25.658;2024-02-28T03:36:46;101202.13;;;4.40
76713;BMP280;65640;43.154;25.658;2024-02-28T03:39:11;101199.75;;;4.32
76713;BMP280;65640;43.154;25.658;2024-02-28T03:41:37;101207.38;;;4.20
76713;BMP280;65640;43.154;25.658;2024-02-28T03:44:03;101205.00;;;4.12
76713;BMP280;65640;43.154;25.658;2024-02-28T03:46:28;101216.75;;;4.08
76713;BMP280;65640;43.154;25.658;2024-02-28T03:48:54;101214.75;;;4.17
76713;BMP280;65640;43.154;25.658;2024-02-28T03:51:19;101206.56;;;4.20
76713;BMP280;65640;43.154;25.658;2024-02-28T03:53:44;101212.97;;;4.11
76713;BMP280;65640;43.154;25.658;2024-02-28T03:56:10;101216.94;;;4.20
76713;BMP280;65640;43.154;25.658;2024-02-28T03:58:36;101214.38;;;4.07
76713;BMP280;65640;43.154;25.658;2024-02-28T04:01:02;101217.78;;;4.01
76713;BMP280;65640;43.154;25.658;2024-02-28T04:03:27;101217.38;;;4.04
76713;BMP280;65640;43.154;25.658;2024-02-28T04:05:52;101213.38;;;4.01
76713;BMP280;65640;43.154;25.658;2024-02-28T04:08:18;101218.56;;;4.01
76713;BMP280;65640;43.154;25.658;2024-02-28T04:10:43;101218.56;;;4.01
76713;BMP280;65640;43.154;25.658;2024-02-28T04:13:08;101231.13;;;3.98
76713;BMP280;65640;43.154;25.658;2024-02-28T04:15:34;101228.16;;;3.87
76713;BMP280;65640;43.154;25.658;2024-02-28T04:17:59;101229.34;;;3.85
76713;BMP280;65640;43.154;25.658;2024-02-28T04:20:25;101230.13;;;3.99
76713;BMP280;65640;43.154;25.658;2024-02-28T04:22:50;101228.34;;;3.93
76713;BMP280;65640;43.154;25.658;2024-02-28T04:25:16;101231.56;;;3.81
76713;BMP280;65640;43.154;25.658;2024-02-28T04:27:41;101230.72;;;3.87
76713;BMP280;65640;43.154;25.658;2024-02-28T04:30:07;101231.56;;;3.81
76713;BMP280;65640;43.154;25.658;2024-02-28T04:32:32;101234.94;;;3.82
76713;BMP280;65640;43.154;25.658;2024-02-28T04:34:58;101227.75;;;3.90
76713;BMP280;65640;43.154;25.658;2024-02-28T04:37:23;101234.31;;;3.86
76713;BMP280;65640;43.154;25.658;2024-02-28T04:39:48;101235.72;;;3.89
76713;BMP280;65640;43.154;25.658;2024-02-28T04:42:15;101240.69;;;3.77
76713;BMP280;65640;43.154;25.658;2024-02-28T04:44:41;101237.31;;;3.90
76713;BMP280;65640;43.154;25.658;2024-02-28T04:47:07;101232.72;;;3.66
76713;BMP280;65640;43.154;25.658;2024-02-28T04:49:32;101239.03;;;3.24
76713;BMP280;65640;43.154;25.658;2024-02-28T04:51:58;101235.38;;;2.98
76713;BMP280;65640;43.154;25.658;2024-02-28T04:54:23;101239.34;;;2.88
76713;BMP280;65640;43.154;25.658;2024-02-28T04:56:49;101236.31;;;2.77
76713;BMP280;65640;43.154;25.658;2024-02-28T04:59:16;101246.63;;;2.71
76713;BMP280;65640;43.154;25.658;2024-02-28T05:01:41;101253.72;;;2.56
76713;BMP280;65640;43.154;25.658;2024-02-28T05:04:11;101251.50;;;2.53
76713;BMP280;65640;43.154;25.658;2024-02-28T05:06:36;101251.16;;;2.62
76713;BMP280;65640;43.154;25.658;2024-02-28T05:09:02;101252.19;;;2.68
76713;BMP280;65640;43.154;25.658;2024-02-28T05:11:27;101254.94;;;2.66
76713;BMP280;65640;43.154;25.658;2024-02-28T05:13:53;101259.56;;;2.71
76713;BMP280;65640;43.154;25.658;2024-02-28T05:16:18;101260.94;;;2.73
76713;BMP280;65640;43.154;25.658;2024-02-28T05:18:44;101265.91;;;2.75
76713;BMP280;65640;43.154;25.658;2024-02-28T05:21:11;101267.94;;;2.79
76713;BMP280;65640;43.154;25.658;2024-02-28T05:23:36;101265.78;;;2.83
76713;BMP280;65640;43.154;25.658;2024-02-28T05:26:02;101271.19;;;3.01
76713;BMP280;65640;43.154;25.658;2024-02-28T05:28:35;101275.66;;;3.21
76713;BMP280;65640;43.154;25.658;2024-02-28T05:31:21;101283.47;;;3.34
76713;BMP280;65640;43.154;25.658;2024-02-28T05:33:46;101286.09;;;3.47
76713;BMP280;65640;43.154;25.658;2024-02-28T05:36:11;101284.31;;;3.74
76713;BMP280;65640;43.154;25.658;2024-02-28T05:38:37;101282.75;;;3.93
76713;BMP280;65640;43.154;25.658;2024-02-28T05:41:02;101284.69;;;3.64
76713;BMP280;65640;43.154;25.658;2024-02-28T05:43:28;101289.47;;;3.47
76713;BMP280;65640;43.154;25.658;2024-02-28T05:45:53;101289.44;;;3.41
76713;BMP280;65640;43.154;25.658;2024-02-28T05:48:19;101293.25;;;3.38
76713;BMP280;65640;43.154;25.658;2024-02-28T05:50:45;101297.00;;;3.42
76713;BMP280;65640;43.154;25.658;2024-02-28T05:53:10;101308.97;;;3.50
76713;BMP280;65640;43.154;25.658;2024-02-28T05:55:36;101300.00;;;3.52
76713;BMP280;65640;43.154;25.658;2024-02-28T05:58:01;101302.44;;;3.61
76713;BMP280;65640;43.154;25.658;2024-02-28T06:00:27;101302.44;;;3.74
76713;BMP280;65640;43.154;25.658;2024-02-28T06:02:53;101308.63;;;3.86
76713;BMP280;65640;43.154;25.658;2024-02-28T06:05:19;101311.84;;;3.95
76713;BMP280;65640;43.154;25.658;2024-02-28T06:07:44;101303.66;;;4.04
76713;BMP280;65640;43.154;25.658;2024-02-28T06:10:09;101312.41;;;4.10
76713;BMP280;65640;43.154;25.658;2024-02-28T06:12:36;101311.81;;;4.21
76713;BMP280;65640;43.154;25.658;2024-02-28T06:15:01;101314.00;;;4.31
76713;BMP280;65640;43.154;25.658;2024-02-28T06:17:27;101308.78;;;4.44
76713;BMP280;65640;43.154;25.658;2024-02-28T06:19:52;101315.53;;;4.58
76713;BMP280;65640;43.154;25.658;2024-02-28T06:22:18;101313.34;;;4.68
76713;BMP280;65640;43.154;25.658;2024-02-28T06:24:45;101318.25;;;4.83
76713;BMP280;65640;43.154;25.658;2024-02-28T06:27:10;101322.75;;;5.07
76713;BMP280;65640;43.154;25.658;2024-02-28T06:29:38;101320.22;;;5.38
76713;BMP280;65640;43.154;25.658;2024-02-28T06:32:03;101317.41;;;5.65
76713;BMP280;65640;43.154;25.658;2024-02-28T06:34:29;101317.00;;;5.93
76713;BMP280;65640;43.154;25.658;2024-02-28T06:36:54;101318.41;;;6.13
76713;BMP280;65640;43.154;25.658;2024-02-28T06:39:20;101312.94;;;6.22
76713;BMP280;65640;43.154;25.658;2024-02-28T06:41:45;101310.34;;;6.22
76713;BMP280;65640;43.154;25.658;2024-02-28T06:44:10;101309.75;;;6.01
76713;BMP280;65640;43.154;25.658;2024-02-28T06:46:36;101312.91;;;6.03
76713;BMP280;65640;43.154;25.658;2024-02-28T06:49:02;101310.75;;;6.19
76713;BMP280;65640;43.154;25.658;2024-02-28T06:51:27;101316.41;;;6.16
76713;BMP280;65640;43.154;25.658;2024-02-28T06:53:53;101315.16;;;6.18
76713;BMP280;65640;43.154;25.658;2024-02-28T06:56:18;101323.13;;;6.23
76713;BMP280;65640;43.154;25.658;2024-02-28T06:58:44;101316.88;;;6.49
76713;BMP280;65640;43.154;25.658;2024-02-28T07:01:09;101318.72;;;6.60
76713;BMP280;65640;43.154;25.658;2024-02-28T07:03:34;101320.19;;;6.74
76713;BMP280;65640;43.154;25.658;2024-02-28T07:06:00;101318.63;;;6.85
76713;BMP280;65640;43.154;25.658;2024-02-28T07:08:25;101319.59;;;6.90
76713;BMP280;65640;43.154;25.658;2024-02-28T07:10:50;101315.06;;;7.16
76713;BMP280;65640;43.154;25.658;2024-02-28T07:13:19;101323.03;;;7.44
76713;BMP280;65640;43.154;25.658;2024-02-28T07:15:45;101326.19;;;7.46
76713;BMP280;65640;43.154;25.658;2024-02-28T07:18:11;101323.53;;;7.76
76713;BMP280;65640;43.154;25.658;2024-02-28T07:20:36;101324.34;;;7.77
76713;BMP280;65640;43.154;25.658;2024-02-28T07:23:01;101323.78;;;7.98
76713;BMP280;65640;43.154;25.658;2024-02-28T07:25:27;101324.66;;;8.27
76713;BMP280;65640;43.154;25.658;2024-02-28T07:27:52;101322.69;;;8.45
76713;BMP280;65640;43.154;25.658;2024-02-28T07:30:18;101314.81;;;8.69
76713;BMP280;65640;43.154;25.658;2024-02-28T07:32:43;101309.16;;;8.89
76713;BMP280;65640;43.154;25.658;2024-02-28T07:35:08;101310.97;;;9.05
76713;BMP280;65640;43.154;25.658;2024-02-28T07:37:34;101306.56;;;9.05
76713;BMP280;65640;43.154;25.658;2024-02-28T07:39:59;101305.19;;;9.03
76713;BMP280;65640;43.154;25.658;2024-02-28T07:42:25;101303.94;;;9.05
76713;BMP280;65640;43.154;25.658;2024-02-28T07:44:50;101299.00;;;8.92
76713;BMP280;65640;43.154;25.658;2024-02-28T07:47:19;101298.16;;;9.03
76713;BMP280;65640;43.154;25.658;2024-02-28T07:49:44;101304.28;;;9.25
76713;BMP280;65640;43.154;25.658;2024-02-28T07:52:10;101291.72;;;9.22
76713;BMP280;65640;43.154;25.658;2024-02-28T07:54:35;101290.34;;;9.20
76713;BMP280;65640;43.154;25.658;2024-02-28T07:57:02;101295.81;;;9.52
76713;BMP280;65640;43.154;25.658;2024-02-28T07:59:27;101283.75;;;9.68
76713;BMP280;65640;43.154;25.658;2024-02-28T08:01:53;101293.66;;;9.65
76713;BMP280;65640;43.154;25.658;2024-02-28T08:04:18;101294.75;;;9.86
76713;BMP280;65640;43.154;25.658;2024-02-28T08:06:43;101296.25;;;9.82
76713;BMP280;65640;43.154;25.658;2024-02-28T08:09:09;101287.75;;;9.92
76713;BMP280;65640;43.154;25.658;2024-02-28T08:11:34;101293.16;;;10.29
76713;BMP280;65640;43.154;25.658;2024-02-28T08:13:59;101294.81;;;10.35
76713;BMP280;65640;43.154;25.658;2024-02-28T08:16:25;101292.38;;;10.50
76713;BMP280;65640;43.154;25.658;2024-02-28T08:18:50;101292.53;;;10.43
76713;BMP280;65640;43.154;25.658;2024-02-28T08:21:16;101293.78;;;10.58
76713;BMP280;65640;43.154;25.658;2024-02-28T08:23:41;101296.53;;;10.73
76713;BMP280;65640;43.154;25.658;2024-02-28T08:26:06;101290.53;;;10.77
76713;BMP280;65640;43.154;25.658;2024-02-28T08:28:32;101294.31;;;10.92
76713;BMP280;65640;43.154;25.658;2024-02-28T08:30:58;101299.50;;;11.13
76713;BMP280;65640;43.154;25.658;2024-02-28T08:33:23;101289.81;;;11.56
76713;BMP280;65640;43.154;25.658;2024-02-28T08:35:48;101292.41;;;11.56
76713;BMP280;65640;43.154;25.658;2024-02-28T08:38:16;101289.47;;;11.42
76713;BMP280;65640;43.154;25.658;2024-02-28T08:40:41;101282.19;;;11.49
76713;BMP280;65640;43.154;25.658;2024-02-28T08:43:07;101287.97;;;11.56
76713;BMP280;65640;43.154;25.658;2024-02-28T08:45:32;101283.84;;;11.76
76713;BMP280;65640;43.154;25.658;2024-02-28T08:47:57;101285.53;;;11.92
76713;BMP280;65640;43.154;25.658;2024-02-28T08:50:26;101290.28;;;12.00
76713;BMP280;65640;43.154;25.658;2024-02-28T08:52:52;101290.31;;;12.20
76713;BMP280;65640;43.154;25.658;2024-02-28T08:55:17;101293.75;;;12.16
76713;BMP280;65640;43.154;25.658;2024-02-28T08:57:45;101292.16;;;12.20
76713;BMP280;65640;43.154;25.658;2024-02-28T09:00:11;101289.28;;;12.21
76713;BMP280;65640;43.154;25.658;2024-02-28T09:02:37;101289.31;;;12.16
76713;BMP280;65640;43.154;25.658;2024-02-28T09:05:03;101285.94;;;12.36
76713;BMP280;65640;43.154;25.658;2024-02-28T09:07:29;101288.84;;;12.54
76713;BMP280;65640;43.154;25.658;2024-02-28T09:09:55;101285.44;;;12.64
76713;BMP280;65640;43.154;25.658;2024-02-28T09:12:20;101280.44;;;12.88
76713;BMP280;65640;43.154;25.658;2024-02-28T09:14:45;101279.41;;;12.99
76713;BMP280;65640;43.154;25.658;2024-02-28T09:17:11;101282.28;;;12.97
76713;BMP280;65640;43.154;25.658;2024-02-28T09:19:36;101278.56;;;13.09
76713;BMP280;65640;43.154;25.658;2024-02-28T09:22:02;101275.69;;;13.15
76713;BMP280;65640;43.154;25.658;2024-02-28T09:24:27;101274.38;;;13.13
76713;BMP280;65640;43.154;25.658;2024-02-28T09:26:53;101271.19;;;13.26
76713;BMP280;65640;43.154;25.658;2024-02-28T09:29:18;101265.91;;;13.36
76713;BMP280;65640;43.154;25.658;2024-02-28T09:31:44;101265.88;;;13.46
76713;BMP280;65640;43.154;25.658;2024-02-28T09:34:09;101271.41;;;13.50
76713;BMP280;65640;43.154;25.658;2024-02-28T09:36:45;101258.19;;;13.65
76713;BMP280;65640;43.154;25.658;2024-02-28T09:39:14;101257.91;;;13.66
76713;BMP280;65640;43.154;25.658;2024-02-28T09:41:43;101255.53;;;13.65
76713;BMP280;65640;43.154;25.658;2024-02-28T09:44:08;101261.09;;;13.63
76713;BMP280;65640;43.154;25.658;2024-02-28T09:46:34;101257.38;;;13.74
76713;BMP280;65640;43.154;25.658;2024-02-28T09:49:04;101255.94;;;13.97
76713;BMP280;65640;43.154;25.658;2024-02-28T09:51:33;101254.16;;;14.21
76713;BMP280;65640;43.154;25.658;2024-02-28T09:54:02;101255.69;;;14.38
76713;BMP280;65640;43.154;25.658;2024-02-28T09:56:29;101249.25;;;14.44
76713;BMP280;65640;43.154;25.658;2024-02-28T09:58:54;101240.97;;;14.32
76713;BMP280;65640;43.154;25.658;2024-02-28T10:01:21;101245.81;;;14.48
76713;BMP280;65640;43.154;25.658;2024-02-28T10:03:49;101242.19;;;14.73
76713;BMP280;65640;43.154;25.658;2024-02-28T10:06:15;101233.34;;;14.88
76713;BMP280;65640;43.154;25.658;2024-02-28T10:08:41;101223.44;;;14.74
76713;BMP280;65640;43.154;25.658;2024-02-28T10:11:06;101232.56;;;14.87
76713;BMP280;65640;43.154;25.658;2024-02-28T10:13:32;101224.56;;;14.92
76713;BMP280;65640;43.154;25.658;2024-02-28T10:15:57;101222.94;;;15.01
76713;BMP280;65640;43.154;25.658;2024-02-28T10:18:23;101214.03;;;14.92
76713;BMP280;65640;43.154;25.658;2024-02-28T10:20:50;101215.50;;;15.03
76713;BMP280;65640;43.154;25.658;2024-02-28T10:23:16;101211.91;;;15.18
76713;BMP280;65640;43.154;25.658;2024-02-28T10:25:46;101207.09;;;15.44
76713;BMP280;65640;43.154;25.658;2024-02-28T10:28:14;101210.41;;;15.54
76713;BMP280;65640;43.154;25.658;2024-02-28T10:30:40;101204.84;;;15.56
76713;BMP280;65640;43.154;25.658;2024-02-28T10:33:13;101199.91;;;15.68
76713;BMP280;65640;43.154;25.658;2024-02-28T10:35:42;101194.31;;;15.75
76713;BMP280;65640;43.154;25.658;2024-02-28T10:38:12;101196.06;;;15.79
76713;BMP280;65640;43.154;25.658;2024-02-28T10:40:40;101185.81;;;15.91
76713;BMP280;65640;43.154;25.658;2024-02-28T10:43:09;101172.59;;;16.10
76713;BMP280;65640;43.154;25.658;2024-02-28T10:45:36;101169.41;;;16.27
76713;BMP280;65640;43.154;25.658;2024-02-28T10:48:04;101173.94;;;16.40
76713;BMP280;65640;43.154;25.658;2024-02-28T10:50:29;101170.72;;;16.43
76713;BMP280;65640;43.154;25.658;2024-02-28T10:53:02;101167.38;;;16.51
76713;BMP280;65640;43.154;25.658;2024-02-28T10:55:32;101165.28;;;16.34
76713;BMP280;65640;43.154;25.658;2024-02-28T10:58:09;101158.16;;;16.35
76713;BMP280;65640;43.154;25.658;2024-02-28T11:00:36;101152.38;;;16.33
76713;BMP280;65640;43.154;25.658;2024-02-28T11:03:07;101151.09;;;16.30
76713;BMP280;65640;43.154;25.658;2024-02-28T11:05:41;101155.50;;;16.35
76713;BMP280;65640;43.154;25.658;2024-02-28T11:08:20;101161.44;;;16.59
76713;BMP280;65640;43.154;25.658;2024-02-28T11:10:46;101149.16;;;16.90
76713;BMP280;65640;43.154;25.658;2024-02-28T11:13:33;101149.25;;;16.85
76713;BMP280;65640;43.154;25.658;2024-02-28T11:16:10;101145.53;;;17.00
76713;BMP280;65640;43.154;25.658;2024-02-28T11:18:36;101137.06;;;17.12
76713;BMP280;65640;43.154;25.658;2024-02-28T11:21:01;101134.78;;;17.19
76713;BMP280;65640;43.154;25.658;2024-02-28T11:23:38;101129.31;;;17.37
76713;BMP280;65640;43.154;25.658;2024-02-28T11:26:03;101122.06;;;17.43
76713;BMP280;65640;43.154;25.658;2024-02-28T11:28:29;101119.38;;;17.65
76713;BMP280;65640;43.154;25.658;2024-02-28T11:30:54;101115.47;;;17.85
76713;BMP280;65640;43.154;25.658;2024-02-28T11:33:20;101116.03;;;17.73
76713;BMP280;65640;43.154;25.658;2024-02-28T11:35:54;101111.72;;;17.77
76713;BMP280;65640;43.154;25.658;2024-02-28T11:38:19;101112.06;;;17.84
76713;BMP280;65640;43.154;25.658;2024-02-28T11:40:49;101098.66;;;17.89
76713;BMP280;65640;43.154;25.658;2024-02-28T11:43:15;101099.97;;;18.01
76713;BMP280;65640;43.154;25.658;2024-02-28T11:45:40;101091.47;;;18.21
76713;BMP280;65640;43.154;25.658;2024-02-28T11:48:07;101092.91;;;18.27
76713;BMP280;65640;43.154;25.658;2024-02-28T11:50:32;101086.34;;;18.33
76713;BMP280;65640;43.154;25.658;2024-02-28T11:52:57;101094.19;;;18.55
76713;BMP280;65640;43.154;25.658;2024-02-28T11:55:25;101083.28;;;18.57
76713;BMP280;65640;43.154;25.658;2024-02-28T11:57:50;101082.19;;;18.49
76713;BMP280;65640;43.154;25.658;2024-02-28T12:00:16;101089.50;;;18.52
76713;BMP280;65640;43.154;25.658;2024-02-28T12:02:41;101082.03;;;18.54
76713;BMP280;65640;43.154;25.658;2024-02-28T12:05:07;101078.13;;;18.52
76713;BMP280;65640;43.154;25.658;2024-02-28T12:07:34;101074.69;;;18.51
76713;BMP280;65640;43.154;25.658;2024-02-28T12:09:59;101067.38;;;18.65
76713;BMP280;65640;43.154;25.658;2024-02-28T12:12:27;101064.41;;;18.75
76713;BMP280;65640;43.154;25.658;2024-02-28T12:14:52;101061.41;;;18.51
76713;BMP280;65640;43.154;25.658;2024-02-28T12:17:18;101061.59;;;18.55
76713;BMP280;65640;43.154;25.658;2024-02-28T12:19:44;101054.56;;;18.50
76713;BMP280;65640;43.154;25.658;2024-02-28T12:22:10;101053.00;;;18.49
76713;BMP280;65640;43.154;25.658;2024-02-28T12:24:36;101040.22;;;18.42
76713;BMP280;65640;43.154;25.658;2024-02-28T12:27:01;101048.94;;;18.34
76713;BMP280;65640;43.154;25.658;2024-02-28T12:29:26;101041.91;;;18.38
76713;BMP280;65640;43.154;25.658;2024-02-28T12:31:52;101044.13;;;18.36
76713;BMP280;65640;43.154;25.658;2024-02-28T12:34:19;101043.94;;;18.33
76713;BMP280;65640;43.154;25.658;2024-02-28T12:36:44;101040.38;;;18.46
76713;BMP280;65640;43.154;25.658;2024-02-28T12:39:09;101041.16;;;18.55
76713;BMP280;65640;43.154;25.658;2024-02-28T12:41:38;101040.19;;;18.51
76713;BMP280;65640;43.154;25.658;2024-02-28T12:44:05;101038.03;;;18.53
76713;BMP280;65640;43.154;25.658;2024-02-28T12:46:31;101038.66;;;18.50
76713;BMP280;65640;43.154;25.658;2024-02-28T12:48:56;101043.97;;;18.59
76713;BMP280;65640;43.154;25.658;2024-02-28T12:51:40;101044.44;;;18.69
76713;BMP280;65640;43.154;25.658;2024-02-28T12:54:07;101041.94;;;18.73
76713;BMP280;65640;43.154;25.658;2024-02-28T12:56:33;101036.66;;;18.64
76713;BMP280;65640;43.154;25.658;2024-02-28T12:58:59;101038.34;;;18.60
76713;BMP280;65640;43.154;25.658;2024-02-28T13:01:25;101041.97;;;18.64
76713;BMP280;65640;43.154;25.658;2024-02-28T13:03:50;101030.09;;;18.70
76713;BMP280;65640;43.154;25.658;2024-02-28T13:06:15;101041.03;;;18.77
76713;BMP280;65640;43.154;25.658;2024-02-28T13:08:41;101034.31;;;18.54
76713;BMP280;65640;43.154;25.658;2024-02-28T13:11:06;101040.19;;;18.34
76713;BMP280;65640;43.154;25.658;2024-02-28T13:13:32;101032.09;;;18.22
76713;BMP280;65640;43.154;25.658;2024-02-28T13:15:58;101041.50;;;18.06
76713;BMP280;65640;43.154;25.658;2024-02-28T13:18:23;101036.50;;;17.95
76713;BMP280;65640;43.154;25.658;2024-02-28T13:20:50;101034.47;;;17.92
76713;BMP280;65640;43.154;25.658;2024-02-28T13:23:16;101034.63;;;17.96
76713;BMP280;65640;43.154;25.658;2024-02-28T13:25:41;101032.94;;;18.09
76713;BMP280;65640;43.154;25.658;2024-02-28T13:28:07;101031.09;;;18.18
76713;BMP280;65640;43.154;25.658;2024-02-28T13:30:32;101030.34;;;18.17
76713;BMP280;65640;43.154;25.658;2024-02-28T13:33:01;101025.47;;;18.11
76713;BMP280;65640;43.154;25.658;2024-02-28T13:35:26;101032.22;;;18.17
76713;BMP280;65640;43.154;25.658;2024-02-28T13:37:52;101031.75;;;18.23
76713;BMP280;65640;43.154;25.658;2024-02-28T13:40:18;101029.59;;;18.34
76713;BMP280;65640;43.154;25.658;2024-02-28T13:42:43;101033.03;;;18.43
76713;BMP280;65640;43.154;25.658;2024-02-28T13:45:10;101028.22;;;18.45